createdAt,value
2023-02-07T00:00:49.127Z,1033.68
2023-02-07T00:01:49.205Z,1033.69
2023-02-07T00:02:49.199Z,1033.67
2023-02-07T00:03:49.185Z,1033.62
2023-02-07T00:04:49.208Z,1033.60
2023-02-07T00:05:49.222Z,1033.69
2023-02-07T00:06:49.248Z,1033.69
2023-02-07T00:07:49.266Z,1033.71
2023-02-07T00:08:49.285Z,1033.77
2023-02-07T00:09:49.309Z,1033.77
2023-02-07T00:10:49.325Z,1033.83
2023-02-07T00:11:49.345Z,1033.81
2023-02-07T00:12:49.365Z,1033.80
2023-02-07T00:13:49.384Z,1033.86
2023-02-07T00:14:49.461Z,1033.85
2023-02-07T00:15:49.425Z,1033.91
2023-02-07T00:16:49.513Z,1033.90
2023-02-07T00:17:49.486Z,1033.88
2023-02-07T00:18:49.486Z,1033.87
2023-02-07T00:19:49.504Z,1033.83
2023-02-07T00:20:49.532Z,1033.83
2023-02-07T00:21:49.549Z,1033.79
2023-02-07T00:22:49.567Z,1033.78
2023-02-07T00:23:49.593Z,1033.81
2023-02-07T00:24:49.605Z,1033.87
2023-02-07T00:25:49.623Z,1033.87
2023-02-07T00:26:49.646Z,1033.86
2023-02-07T00:27:49.879Z,1033.81
2023-02-07T00:28:49.757Z,1033.83
2023-02-07T00:29:49.707Z,1033.87
2023-02-07T00:30:49.855Z,1033.83
2023-02-07T00:31:49.748Z,1033.79
2023-02-07T00:32:49.767Z,1033.79
2023-02-07T00:33:49.809Z,1033.75
2023-02-07T00:34:49.807Z,1033.70
2023-02-07T00:35:49.832Z,1033.71
2023-02-07T00:36:49.849Z,1033.66
2023-02-07T00:37:49.871Z,1033.75
2023-02-07T00:38:49.887Z,1033.71
2023-02-07T00:39:49.906Z,1033.68
2023-02-07T00:40:49.928Z,1033.69
2023-02-07T00:41:49.955Z,1033.66
2023-02-07T00:42:49.967Z,1033.69
2023-02-07T00:43:49.986Z,1033.70
2023-02-07T00:44:50.009Z,1033.65
2023-02-07T00:45:50.126Z,1033.69
2023-02-07T00:46:50.054Z,1033.66
2023-02-07T00:47:50.066Z,1033.69
2023-02-07T00:48:50.087Z,1033.73
2023-02-07T00:49:50.128Z,1033.66
2023-02-07T00:50:50.128Z,1033.70
2023-02-07T00:51:50.157Z,1033.75
2023-02-07T00:52:50.167Z,1033.68
2023-02-07T00:53:50.199Z,1033.66
2023-02-07T00:54:50.209Z,1033.65
2023-02-07T00:55:50.233Z,1033.64
2023-02-07T00:56:50.247Z,1033.73
2023-02-07T00:57:50.273Z,1033.74
2023-02-07T00:58:51.067Z,1033.68
2023-02-07T00:59:50.311Z,1033.76
2023-02-07T01:00:50.329Z,1033.73
2023-02-07T01:01:50.356Z,1033.74
2023-02-07T01:02:50.371Z,1033.75
2023-02-07T01:03:50.386Z,1033.76
2023-02-07T01:04:50.659Z,1033.69
2023-02-07T01:05:50.452Z,1033.70
2023-02-07T01:06:50.452Z,1033.66
2023-02-07T01:07:50.468Z,1033.64
2023-02-07T01:08:50.494Z,1033.65
2023-02-07T01:09:50.517Z,1033.63
2023-02-07T01:10:50.530Z,1033.58
2023-02-07T01:11:50.548Z,1033.61
2023-02-07T01:12:50.570Z,1033.58
2023-02-07T01:13:50.588Z,1033.67
2023-02-07T01:14:50.610Z,1033.62
2023-02-07T01:15:50.734Z,1033.62
2023-02-07T01:16:50.658Z,1033.60
2023-02-07T01:17:50.667Z,1033.62
2023-02-07T01:18:50.689Z,1033.60
2023-02-07T01:19:50.707Z,1033.60
2023-02-07T01:20:50.728Z,1033.66
2023-02-07T01:21:50.764Z,1033.67
2023-02-07T01:22:50.769Z,1033.69
2023-02-07T01:23:50.792Z,1033.65
2023-02-07T01:24:50.808Z,1033.72
2023-02-07T01:25:50.826Z,1033.73
2023-02-07T01:26:50.849Z,1033.75
2023-02-07T01:27:50.919Z,1033.74
2023-02-07T01:28:50.889Z,1033.73
2023-02-07T01:29:50.910Z,1033.76
2023-02-07T01:30:50.983Z,1033.77
2023-02-07T01:31:50.977Z,1033.75
2023-02-07T01:32:50.969Z,1033.80
2023-02-07T01:33:50.987Z,1033.78
2023-02-07T01:34:51.008Z,1033.79
2023-02-07T01:35:51.027Z,1033.70
2023-02-07T01:36:51.047Z,1033.67
2023-02-07T01:37:51.088Z,1033.60
2023-02-07T01:38:51.089Z,1033.59
2023-02-07T01:39:51.102Z,1033.56
2023-02-07T01:40:51.125Z,1033.57
2023-02-07T01:41:51.142Z,1033.56
2023-02-07T01:42:51.162Z,1033.55
2023-02-07T01:43:51.183Z,1033.50
2023-02-07T01:44:51.206Z,1033.51
2023-02-07T01:45:51.220Z,1033.45
2023-02-07T01:46:51.240Z,1033.44
2023-02-07T01:47:51.260Z,1033.44
2023-02-07T01:48:51.280Z,1033.43
2023-02-07T01:49:51.296Z,1033.39
2023-02-07T01:50:51.351Z,1033.42
2023-02-07T01:51:51.337Z,1033.47
2023-02-07T01:52:51.356Z,1033.45
2023-02-07T01:53:51.397Z,1033.51
2023-02-07T01:54:51.396Z,1033.48
2023-02-07T01:55:51.415Z,1033.47
2023-02-07T01:56:51.438Z,1033.48
2023-02-07T01:57:51.475Z,1033.41
2023-02-07T01:58:51.475Z,1033.40
2023-02-07T01:59:51.498Z,1033.37
2023-02-07T02:00:51.514Z,1033.41
2023-02-07T02:01:51.561Z,1033.43
2023-02-07T02:02:51.630Z,1033.42
2023-02-07T02:03:51.574Z,1033.38
2023-02-07T02:04:51.594Z,1033.39
2023-02-07T02:05:51.621Z,1033.42
2023-02-07T02:06:51.634Z,1033.41
2023-02-07T02:07:51.652Z,1033.49
2023-02-07T02:08:51.680Z,1033.50
2023-02-07T02:09:51.786Z,1033.52
2023-02-07T02:10:51.716Z,1033.50
2023-02-07T02:11:51.731Z,1033.53
2023-02-07T02:12:51.752Z,1033.50
2023-02-07T02:13:51.771Z,1033.51
2023-02-07T02:14:51.792Z,1033.49
2023-02-07T02:15:51.848Z,1033.43
2023-02-07T02:16:51.832Z,1033.45
2023-02-07T02:17:51.855Z,1033.44
2023-02-07T02:18:51.871Z,1033.47
2023-02-07T02:19:51.889Z,1033.47
2023-02-07T02:20:51.919Z,1033.47
2023-02-07T02:21:51.930Z,1033.47
2023-02-07T02:22:51.952Z,1033.47
2023-02-07T02:23:51.968Z,1033.52
2023-02-07T02:24:51.993Z,1033.46
2023-02-07T02:25:52.029Z,1033.50
2023-02-07T02:26:52.029Z,1033.51
2023-02-07T02:27:52.123Z,1033.55
2023-02-07T02:28:52.068Z,1033.50
2023-02-07T02:29:52.091Z,1033.55
2023-02-07T02:30:52.199Z,1033.52
2023-02-07T02:31:52.125Z,1033.48
2023-02-07T02:32:52.147Z,1033.48
2023-02-07T02:33:52.174Z,1033.48
2023-02-07T02:34:52.198Z,1033.47
2023-02-07T02:35:52.206Z,1033.47
2023-02-07T02:36:52.226Z,1033.46
2023-02-07T02:37:52.247Z,1033.48
2023-02-07T02:38:52.265Z,1033.50
2023-02-07T02:39:52.288Z,1033.45
2023-02-07T02:40:52.317Z,1033.46
2023-02-07T02:41:52.347Z,1033.47
2023-02-07T02:42:52.353Z,1033.48
2023-02-07T02:43:52.361Z,1033.51
2023-02-07T02:44:52.382Z,1033.52
2023-02-07T02:45:52.402Z,1033.51
2023-02-07T02:46:52.425Z,1033.51
2023-02-07T02:47:52.442Z,1033.45
2023-02-07T02:48:52.464Z,1033.43
2023-02-07T02:49:52.483Z,1033.44
2023-02-07T02:50:52.506Z,1033.45
2023-02-07T02:51:52.523Z,1033.43
2023-02-07T02:52:52.546Z,1033.46
2023-02-07T02:53:52.562Z,1033.46
2023-02-07T02:54:52.584Z,1033.47
2023-02-07T02:55:52.601Z,1033.51
2023-02-07T02:56:52.622Z,1033.46
2023-02-07T02:57:52.665Z,1033.48
2023-02-07T02:58:52.669Z,1033.52
2023-02-07T02:59:52.678Z,1033.53
2023-02-07T03:00:52.700Z,1033.59
2023-02-07T03:01:52.765Z,1033.60
2023-02-07T03:02:52.738Z,1033.63
2023-02-07T03:03:52.757Z,1033.60
2023-02-07T03:04:53.011Z,1033.53
2023-02-07T03:05:52.946Z,1033.53
2023-02-07T03:06:53.019Z,1033.49
2023-02-07T03:07:52.937Z,1033.53
2023-02-07T03:08:52.856Z,1033.48
2023-02-07T03:09:53.025Z,1033.45
2023-02-07T03:10:52.895Z,1033.45
2023-02-07T03:11:53.015Z,1033.49
2023-02-07T03:12:52.984Z,1033.45
2023-02-07T03:13:52.979Z,1033.42
2023-02-07T03:14:53.033Z,1033.45
2023-02-07T03:15:53.020Z,1033.37
2023-02-07T03:16:53.016Z,1033.40
2023-02-07T03:17:53.032Z,1033.36
2023-02-07T03:18:53.053Z,1033.39
2023-02-07T03:19:53.071Z,1033.33
2023-02-07T03:20:53.140Z,1033.39
2023-02-07T03:21:53.107Z,1033.36
2023-02-07T03:22:53.132Z,1033.32
2023-02-07T03:23:53.145Z,1033.27
2023-02-07T03:24:53.171Z,1033.27
2023-02-07T03:25:53.187Z,1033.27
2023-02-07T03:26:53.205Z,1033.19
2023-02-07T03:27:53.267Z,1033.19
2023-02-07T03:28:53.242Z,1033.20
2023-02-07T03:29:53.283Z,1033.20
2023-02-07T03:30:53.339Z,1033.16
2023-02-07T03:31:53.300Z,1033.21
2023-02-07T03:32:53.327Z,1033.17
2023-02-07T03:33:53.339Z,1033.17
2023-02-07T03:34:53.357Z,1033.17
2023-02-07T03:35:53.381Z,1033.15
2023-02-07T03:36:53.396Z,1033.12
2023-02-07T03:37:53.420Z,1033.17
2023-02-07T03:38:53.432Z,1033.16
2023-02-07T03:39:53.458Z,1033.13
2023-02-07T03:40:53.471Z,1033.14
2023-02-07T03:41:53.492Z,1033.15
2023-02-07T03:42:53.517Z,1033.15
2023-02-07T03:43:53.533Z,1033.14
2023-02-07T03:44:53.548Z,1033.14
2023-02-07T03:45:53.599Z,1033.15
2023-02-07T03:46:53.631Z,1033.09
2023-02-07T03:47:53.607Z,1033.18
2023-02-07T03:48:53.640Z,1033.15
2023-02-07T03:49:53.646Z,1033.20
2023-02-07T03:50:53.666Z,1033.18
2023-02-07T03:51:53.685Z,1033.15
2023-02-07T03:52:53.705Z,1033.14
2023-02-07T03:53:53.725Z,1033.10
2023-02-07T03:54:53.746Z,1033.09
2023-02-07T03:55:53.768Z,1033.12
2023-02-07T03:56:53.781Z,1033.12
2023-02-07T03:57:53.804Z,1033.11
2023-02-07T03:58:53.821Z,1033.21
2023-02-07T03:59:53.848Z,1033.15
2023-02-07T04:00:53.901Z,1033.18
2023-02-07T04:01:53.934Z,1033.19
2023-02-07T04:02:53.900Z,1033.17
2023-02-07T04:03:53.928Z,1033.21
2023-02-07T04:04:54.088Z,1033.19
2023-02-07T04:05:53.958Z,1033.21
2023-02-07T04:06:53.981Z,1033.19
2023-02-07T04:07:53.999Z,1033.19
2023-02-07T04:08:54.021Z,1033.24
2023-02-07T04:09:54.036Z,1033.16
2023-02-07T04:10:54.054Z,1033.21
2023-02-07T04:11:54.079Z,1033.22
2023-02-07T04:12:54.094Z,1033.21
2023-02-07T04:13:54.113Z,1033.19
2023-02-07T04:14:54.133Z,1033.17
2023-02-07T04:15:54.154Z,1033.16
2023-02-07T04:16:54.172Z,1033.15
2023-02-07T04:17:54.230Z,1033.16
2023-02-07T04:18:54.214Z,1033.18
2023-02-07T04:19:54.230Z,1033.19
2023-02-07T04:20:54.246Z,1033.12
2023-02-07T04:21:54.267Z,1033.14
2023-02-07T04:22:54.284Z,1033.12
2023-02-07T04:23:54.308Z,1033.13
2023-02-07T04:24:54.329Z,1033.11
2023-02-07T04:25:54.345Z,1033.12
2023-02-07T04:26:54.369Z,1033.11
2023-02-07T04:27:54.485Z,1033.17
2023-02-07T04:28:54.399Z,1033.13
2023-02-07T04:29:54.419Z,1033.17
2023-02-07T04:30:54.456Z,1033.16
2023-02-07T04:31:54.588Z,1033.12
2023-02-07T04:32:54.476Z,1033.16
2023-02-07T04:33:54.517Z,1033.12
2023-02-07T04:34:54.518Z,1033.14
2023-02-07T04:35:54.537Z,1033.21
2023-02-07T04:36:54.551Z,1033.20
2023-02-07T04:37:54.572Z,1033.17
2023-02-07T04:38:54.591Z,1033.22
2023-02-07T04:39:54.612Z,1033.24
2023-02-07T04:40:54.628Z,1033.18
2023-02-07T04:41:54.650Z,1033.18
2023-02-07T04:42:54.667Z,1033.22
2023-02-07T04:43:54.692Z,1033.23
2023-02-07T04:44:54.720Z,1033.18
2023-02-07T04:45:54.740Z,1033.19
2023-02-07T04:46:54.749Z,1033.18
2023-02-07T04:47:54.763Z,1033.17
2023-02-07T04:48:54.780Z,1033.19
2023-02-07T04:49:54.843Z,1033.15
2023-02-07T04:50:54.817Z,1033.15
2023-02-07T04:51:54.848Z,1033.21
2023-02-07T04:52:54.857Z,1033.21
2023-02-07T04:53:54.875Z,1033.15
2023-02-07T04:54:54.901Z,1033.17
2023-02-07T04:55:54.916Z,1033.14
2023-02-07T04:56:54.950Z,1033.18
2023-02-07T04:57:54.962Z,1033.16
2023-02-07T04:58:54.971Z,1033.15
2023-02-07T04:59:54.994Z,1033.12
2023-02-07T05:00:55.058Z,1033.09
2023-02-07T05:01:55.037Z,1033.09
2023-02-07T05:02:55.052Z,1033.10
2023-02-07T05:03:55.092Z,1033.10
2023-02-07T05:04:55.108Z,1033.09
2023-02-07T05:05:55.138Z,1033.11
2023-02-07T05:06:55.153Z,1033.11
2023-02-07T05:07:55.163Z,1033.06
2023-02-07T05:08:55.166Z,1033.11
2023-02-07T05:09:55.204Z,1033.08
2023-02-07T05:10:55.257Z,1033.10
2023-02-07T05:11:55.228Z,1033.08
2023-02-07T05:12:55.249Z,1033.06
2023-02-07T05:13:55.266Z,1033.05
2023-02-07T05:14:55.285Z,1033.01
2023-02-07T05:15:55.306Z,1033.12
2023-02-07T05:16:55.365Z,1033.08
2023-02-07T05:17:55.345Z,1033.09
2023-02-07T05:18:55.359Z,1033.11
2023-02-07T05:19:55.387Z,1033.12
2023-02-07T05:20:55.405Z,1033.07
2023-02-07T05:21:55.440Z,1033.09
2023-02-07T05:22:55.441Z,1033.06
2023-02-07T05:23:55.463Z,1033.09
2023-02-07T05:24:55.487Z,1033.03
2023-02-07T05:25:55.500Z,1033.08
2023-02-07T05:26:55.524Z,1033.14
2023-02-07T05:27:55.543Z,1033.10
2023-02-07T05:28:55.553Z,1033.06
2023-02-07T05:29:55.578Z,1033.12
2023-02-07T05:30:55.720Z,1033.11
2023-02-07T05:31:55.619Z,1033.08
2023-02-07T05:32:55.630Z,1033.05
2023-02-07T05:33:55.652Z,1033.03
2023-02-07T05:34:55.669Z,1033.05
2023-02-07T05:35:55.689Z,1033.04
2023-02-07T05:36:55.707Z,1033.08
2023-02-07T05:37:55.746Z,1033.03
2023-02-07T05:38:55.743Z,1033.05
2023-02-07T05:39:55.779Z,1033.07
2023-02-07T05:40:55.780Z,1033.02
2023-02-07T05:41:55.805Z,1032.99
2023-02-07T05:42:55.820Z,1032.97
2023-02-07T05:43:55.840Z,1033.03
2023-02-07T05:44:55.890Z,1033.08
2023-02-07T05:45:55.944Z,1033.09
2023-02-07T05:46:55.896Z,1033.10
2023-02-07T05:47:55.919Z,1033.16
2023-02-07T05:48:55.932Z,1033.16
2023-02-07T05:49:55.952Z,1033.15
2023-02-07T05:50:55.969Z,1033.19
2023-02-07T05:51:55.991Z,1033.24
2023-02-07T05:52:56.009Z,1033.23
2023-02-07T05:53:56.053Z,1033.19
2023-02-07T05:54:56.046Z,1033.20
2023-02-07T05:55:56.067Z,1033.22
2023-02-07T05:56:56.084Z,1033.20
2023-02-07T05:57:56.109Z,1033.19
2023-02-07T05:58:56.132Z,1033.25
2023-02-07T05:59:56.146Z,1033.26
2023-02-07T06:00:56.160Z,1033.30
2023-02-07T06:01:56.180Z,1033.36
2023-02-07T06:02:56.198Z,1033.36
2023-02-07T06:03:56.220Z,1033.31
2023-02-07T06:04:56.237Z,1033.37
2023-02-07T06:05:56.266Z,1033.37
2023-02-07T06:06:56.278Z,1033.37
2023-02-07T06:07:56.299Z,1033.32
2023-02-07T06:08:56.312Z,1033.37
2023-02-07T06:09:56.361Z,1033.38
2023-02-07T06:10:56.352Z,1033.40
2023-02-07T06:11:56.372Z,1033.40
2023-02-07T06:12:56.388Z,1033.43
2023-02-07T06:13:56.410Z,1033.44
2023-02-07T06:14:56.427Z,1033.43
2023-02-07T06:15:56.670Z,1033.47
2023-02-07T06:16:56.463Z,1033.48
2023-02-07T06:17:56.488Z,1033.48
2023-02-07T06:18:56.504Z,1033.52
2023-02-07T06:19:56.524Z,1033.50
2023-02-07T06:20:56.541Z,1033.51
2023-02-07T06:21:56.562Z,1033.50
2023-02-07T06:22:56.577Z,1033.50
2023-02-07T06:23:56.600Z,1033.53
2023-02-07T06:24:56.617Z,1033.50
2023-02-07T06:25:56.661Z,1033.53
2023-02-07T06:26:56.659Z,1033.45
2023-02-07T06:27:56.731Z,1033.45
2023-02-07T06:28:56.695Z,1033.48
2023-02-07T06:29:56.718Z,1033.51
2023-02-07T06:30:56.854Z,1033.51
2023-02-07T06:31:56.759Z,1033.46
2023-02-07T06:32:56.772Z,1033.45
2023-02-07T06:33:56.799Z,1033.41
2023-02-07T06:34:56.820Z,1033.44
2023-02-07T06:35:56.833Z,1033.43
2023-02-07T06:36:56.849Z,1033.47
2023-02-07T06:37:56.871Z,1033.54
2023-02-07T06:38:56.895Z,1033.53
2023-02-07T06:39:56.910Z,1033.58
2023-02-07T06:40:56.926Z,1033.58
2023-02-07T06:41:56.973Z,1033.55
2023-02-07T06:42:56.969Z,1033.60
2023-02-07T06:43:56.999Z,1033.55
2023-02-07T06:44:57.015Z,1033.58
2023-02-07T06:45:57.068Z,1033.65
2023-02-07T06:46:57.041Z,1033.61
2023-02-07T06:47:57.064Z,1033.57
2023-02-07T06:48:57.096Z,1033.64
2023-02-07T06:49:57.107Z,1033.64
2023-02-07T06:50:57.118Z,1033.56
2023-02-07T06:51:57.143Z,1033.56
2023-02-07T06:52:57.157Z,1033.64
2023-02-07T06:53:57.177Z,1033.69
2023-02-07T06:54:57.197Z,1033.67
2023-02-07T06:55:57.217Z,1033.68
2023-02-07T06:56:57.233Z,1033.62
2023-02-07T06:57:57.422Z,1033.65
2023-02-07T06:58:57.272Z,1033.66
2023-02-07T06:59:57.292Z,1033.72
2023-02-07T07:00:57.308Z,1033.68
2023-02-07T07:01:57.361Z,1033.68
2023-02-07T07:02:57.480Z,1033.69
2023-02-07T07:03:57.384Z,1033.73
2023-02-07T07:04:57.395Z,1033.72
2023-02-07T07:05:57.417Z,1033.76
2023-02-07T07:06:57.430Z,1033.70
2023-02-07T07:07:57.548Z,1033.74
2023-02-07T07:08:57.466Z,1033.68
2023-02-07T07:09:57.624Z,1033.61
2023-02-07T07:10:57.511Z,1033.64
2023-02-07T07:11:57.525Z,1033.65
2023-02-07T07:12:57.546Z,1033.66
2023-02-07T07:13:57.589Z,1033.66
2023-02-07T07:14:57.596Z,1033.64
2023-02-07T07:15:57.633Z,1033.72
2023-02-07T07:16:57.620Z,1033.69
2023-02-07T07:17:57.641Z,1033.77
2023-02-07T07:18:57.669Z,1033.78
2023-02-07T07:19:57.684Z,1033.81
2023-02-07T07:20:57.701Z,1033.83
2023-02-07T07:21:57.718Z,1033.83
2023-02-07T07:22:57.741Z,1033.89
2023-02-07T07:23:57.762Z,1033.88
2023-02-07T07:24:57.773Z,1033.89
2023-02-07T07:25:57.797Z,1033.94
2023-02-07T07:26:57.813Z,1033.99
2023-02-07T07:27:57.868Z,1033.99
2023-02-07T07:28:57.885Z,1034.06
2023-02-07T07:29:57.893Z,1034.07
2023-02-07T07:30:58.094Z,1034.08
2023-02-07T07:31:57.914Z,1034.10
2023-02-07T07:32:57.935Z,1034.15
2023-02-07T07:33:57.950Z,1034.12
2023-02-07T07:34:57.969Z,1034.16
2023-02-07T07:35:57.996Z,1034.17
2023-02-07T07:36:58.007Z,1034.12
2023-02-07T07:37:58.026Z,1034.13
2023-02-07T07:38:58.042Z,1034.15
2023-02-07T07:39:58.069Z,1034.12
2023-02-07T07:40:58.083Z,1034.11
2023-02-07T07:41:58.102Z,1034.10
2023-02-07T07:42:58.122Z,1034.08
2023-02-07T07:43:58.143Z,1034.02
2023-02-07T07:44:58.157Z,1034.03
2023-02-07T07:45:58.203Z,1034.08
2023-02-07T07:46:58.199Z,1034.05
2023-02-07T07:47:58.250Z,1034.03
2023-02-07T07:48:58.240Z,1034.06
2023-02-07T07:49:58.405Z,1034.05
2023-02-07T07:50:58.273Z,1034.11
2023-02-07T07:51:58.292Z,1034.18
2023-02-07T07:52:58.310Z,1034.20
2023-02-07T07:53:58.341Z,1034.24
2023-02-07T07:54:58.354Z,1034.28
2023-02-07T07:55:58.374Z,1034.32
2023-02-07T07:56:58.390Z,1034.32
2023-02-07T07:57:58.414Z,1034.33
2023-02-07T07:58:58.430Z,1034.37
2023-02-07T07:59:58.450Z,1034.33
2023-02-07T08:00:58.553Z,1034.35
2023-02-07T08:01:58.526Z,1034.37
2023-02-07T08:02:58.512Z,1034.40
2023-02-07T08:03:58.606Z,1034.41
2023-02-07T08:04:58.553Z,1034.42
2023-02-07T08:05:58.564Z,1034.44
2023-02-07T08:06:58.589Z,1034.44
2023-02-07T08:07:58.605Z,1034.46
2023-02-07T08:08:58.627Z,1034.47
2023-02-07T08:09:58.642Z,1034.48
2023-02-07T08:10:58.664Z,1034.60
2023-02-07T08:11:58.686Z,1034.59
2023-02-07T08:12:58.700Z,1034.63
2023-02-07T08:13:58.721Z,1034.58
2023-02-07T08:14:58.743Z,1034.60
2023-02-07T08:15:58.794Z,1034.66
2023-02-07T08:16:58.781Z,1034.65
2023-02-07T08:17:58.822Z,1034.64
2023-02-07T08:18:58.822Z,1034.65
2023-02-07T08:19:58.838Z,1034.67
2023-02-07T08:20:58.859Z,1034.66
2023-02-07T08:21:58.878Z,1034.61
2023-02-07T08:22:58.900Z,1034.63
2023-02-07T08:23:58.919Z,1034.55
2023-02-07T08:24:58.939Z,1034.54
2023-02-07T08:25:58.959Z,1034.56
2023-02-07T08:26:58.980Z,1034.53
2023-02-07T08:27:58.997Z,1034.50
2023-02-07T08:28:59.022Z,1034.53
2023-02-07T08:29:59.039Z,1034.58
2023-02-07T08:30:59.071Z,1034.56
2023-02-07T08:31:59.142Z,1034.57
2023-02-07T08:32:59.101Z,1034.54
2023-02-07T08:33:59.164Z,1034.56
2023-02-07T08:34:59.141Z,1034.58
2023-02-07T08:35:59.187Z,1034.57
2023-02-07T08:36:59.184Z,1034.59
2023-02-07T08:37:59.200Z,1034.60
2023-02-07T08:38:59.226Z,1034.61
2023-02-07T08:39:59.238Z,1034.55
2023-02-07T08:40:59.260Z,1034.60
2023-02-07T08:41:59.328Z,1034.63
2023-02-07T08:42:59.299Z,1034.58
2023-02-07T08:43:59.319Z,1034.62
2023-02-07T08:44:59.339Z,1034.62
2023-02-07T08:45:59.460Z,1034.62
2023-02-07T08:46:59.382Z,1034.61
2023-02-07T08:47:59.398Z,1034.56
2023-02-07T08:48:59.432Z,1034.59
2023-02-07T08:49:59.472Z,1034.56
2023-02-07T08:50:59.463Z,1034.62
2023-02-07T08:51:59.481Z,1034.63
2023-02-07T08:52:59.501Z,1034.60
2023-02-07T08:53:59.523Z,1034.57
2023-02-07T08:54:59.544Z,1034.47
2023-02-07T08:55:59.564Z,1034.50
2023-02-07T08:56:59.583Z,1034.43
2023-02-07T08:57:59.600Z,1034.44
2023-02-07T08:58:59.825Z,1034.45
2023-02-07T08:59:59.647Z,1034.44
2023-02-07T09:00:59.688Z,1034.44
2023-02-07T09:01:59.717Z,1034.43
2023-02-07T09:02:59.707Z,1034.46
2023-02-07T09:03:59.750Z,1034.47
2023-02-07T09:04:59.769Z,1034.41
2023-02-07T09:05:59.807Z,1034.44
2023-02-07T09:06:59.786Z,1034.40
2023-02-07T09:07:59.807Z,1034.40
2023-02-07T09:08:59.828Z,1034.39
2023-02-07T09:09:59.845Z,1034.33
2023-02-07T09:10:59.928Z,1034.35
2023-02-07T09:11:59.896Z,1034.35
2023-02-07T09:12:59.911Z,1034.38
2023-02-07T09:13:59.927Z,1034.36
2023-02-07T09:14:59.950Z,1034.38
2023-02-07T09:15:59.969Z,1034.32
2023-02-07T09:17:00.026Z,1034.34
2023-02-07T09:18:00.011Z,1034.28
2023-02-07T09:19:00.032Z,1034.29
2023-02-07T09:20:00.076Z,1034.29
2023-02-07T09:21:00.093Z,1034.33
2023-02-07T09:22:00.110Z,1034.30
2023-02-07T09:23:00.115Z,1034.33
2023-02-07T09:24:00.161Z,1034.30
2023-02-07T09:25:00.156Z,1034.29
2023-02-07T09:26:00.176Z,1034.25
2023-02-07T09:27:00.199Z,1034.22
2023-02-07T09:28:00.249Z,1034.23
2023-02-07T09:29:00.240Z,1034.21
2023-02-07T09:30:00.263Z,1034.18
2023-02-07T09:31:00.384Z,1034.17
2023-02-07T09:32:00.312Z,1034.18
2023-02-07T09:33:00.333Z,1034.13
2023-02-07T09:34:00.342Z,1034.19
2023-02-07T09:35:00.369Z,1034.14
2023-02-07T09:36:00.386Z,1034.14
2023-02-07T09:37:00.408Z,1034.14
2023-02-07T09:38:00.446Z,1034.15
2023-02-07T09:39:00.453Z,1034.11
2023-02-07T09:40:00.493Z,1034.13
2023-02-07T09:41:00.492Z,1034.07
2023-02-07T09:42:00.512Z,1034.05
2023-02-07T09:43:00.772Z,1034.05
2023-02-07T09:44:00.873Z,1034.02
2023-02-07T09:45:00.951Z,1034.05
2023-02-07T09:46:00.629Z,1034.04
2023-02-07T09:47:00.617Z,1033.99
2023-02-07T09:48:00.638Z,1034.04
2023-02-07T09:49:00.678Z,1034.02
2023-02-07T09:50:00.690Z,1034.04
2023-02-07T09:51:00.704Z,1034.03
2023-02-07T09:52:00.721Z,1034.01
2023-02-07T09:53:00.748Z,1034.04
2023-02-07T09:54:00.791Z,1034.09
2023-02-07T09:55:00.802Z,1034.07
2023-02-07T09:56:00.805Z,1034.06
2023-02-07T09:57:00.831Z,1034.06
2023-02-07T09:58:00.843Z,1034.08
2023-02-07T09:59:00.870Z,1034.07
2023-02-07T10:00:00.903Z,1034.03
2023-02-07T10:01:00.942Z,1034.06
2023-02-07T10:02:00.931Z,1034.07
2023-02-07T10:03:00.956Z,1034.12
2023-02-07T10:04:00.971Z,1034.04
2023-02-07T10:05:01.001Z,1034.03
2023-02-07T10:06:09.231Z,1034.07
2023-02-07T10:07:01.049Z,1034.07
2023-02-07T10:08:01.052Z,1034.10
2023-02-07T10:09:01.089Z,1034.11
2023-02-07T10:10:01.112Z,1034.11
2023-02-07T10:11:01.117Z,1034.15
2023-02-07T10:12:01.154Z,1034.12
2023-02-07T10:13:01.172Z,1034.20
2023-02-07T10:14:01.214Z,1034.12
2023-02-07T10:15:01.200Z,1034.17
2023-02-07T10:16:01.294Z,1034.16
2023-02-07T10:17:01.249Z,1034.18
2023-02-07T10:18:01.263Z,1034.17
2023-02-07T10:19:01.291Z,1034.14
2023-02-07T10:20:01.388Z,1034.14
2023-02-07T10:21:01.331Z,1034.10
2023-02-07T10:22:01.348Z,1034.10
2023-02-07T10:23:01.372Z,1034.09
2023-02-07T10:24:01.407Z,1034.12
2023-02-07T10:25:01.417Z,1034.14
2023-02-07T10:26:01.454Z,1034.14
2023-02-07T10:27:01.456Z,1034.09
2023-02-07T10:28:01.532Z,1034.12
2023-02-07T10:29:01.498Z,1034.06
2023-02-07T10:30:01.519Z,1034.08
2023-02-07T10:31:01.659Z,1034.11
2023-02-07T10:32:01.600Z,1034.05
2023-02-07T10:33:01.608Z,1034.07
2023-02-07T10:34:01.608Z,1034.08
2023-02-07T10:35:01.644Z,1034.04
2023-02-07T10:36:01.661Z,1034.02
2023-02-07T10:37:01.674Z,1034.07
2023-02-07T10:38:01.694Z,1034.04
2023-02-07T10:39:08.930Z,1034.06
2023-02-07T10:40:01.735Z,1034.10
2023-02-07T10:41:01.764Z,1034.04
2023-02-07T10:42:01.797Z,1034.07
2023-02-07T10:43:01.844Z,1034.03
2023-02-07T10:44:01.823Z,1033.99
2023-02-07T10:45:01.846Z,1034.02
2023-02-07T10:46:06.368Z,1034.06
2023-02-07T10:47:01.891Z,1034.02
2023-02-07T10:48:01.916Z,1034.03
2023-02-07T10:49:01.961Z,1033.97
2023-02-07T10:50:01.954Z,1034.00
2023-02-07T10:51:01.979Z,1034.05
2023-02-07T10:52:02.024Z,1034.01
2023-02-07T10:53:02.026Z,1034.06
2023-02-07T10:54:02.076Z,1034.11
2023-02-07T10:55:02.081Z,1034.12
2023-02-07T10:56:02.086Z,1034.15
2023-02-07T10:57:02.966Z,1034.19
2023-02-07T10:58:11.383Z,1034.23
2023-02-07T10:59:02.157Z,1034.19
2023-02-07T11:00:02.173Z,1034.23
2023-02-07T11:01:02.193Z,1034.20
2023-02-07T11:02:02.238Z,1034.20
2023-02-07T11:03:02.260Z,1034.20
2023-02-07T11:04:02.258Z,1034.18
2023-02-07T11:05:02.315Z,1034.10
2023-02-07T11:06:02.304Z,1034.12
2023-02-07T11:07:02.325Z,1034.11
2023-02-07T11:08:02.349Z,1034.09
2023-02-07T11:09:02.368Z,1034.05
2023-02-07T11:10:02.388Z,1034.09
2023-02-07T11:11:02.419Z,1034.12
2023-02-07T11:12:02.430Z,1034.13
2023-02-07T11:13:02.511Z,1034.12
2023-02-07T11:14:02.502Z,1034.12
2023-02-07T11:15:02.504Z,1034.10
2023-02-07T11:16:02.530Z,1034.11
2023-02-07T11:17:02.544Z,1034.13
2023-02-07T11:18:02.564Z,1034.13
2023-02-07T11:19:02.594Z,1034.06
2023-02-07T11:20:02.621Z,1034.10
2023-02-07T11:21:02.633Z,1034.13
2023-02-07T11:22:02.670Z,1034.12
2023-02-07T11:23:02.676Z,1034.08
2023-02-07T11:24:02.697Z,1034.14
2023-02-07T11:25:02.722Z,1034.10
2023-02-07T11:26:02.741Z,1034.09
2023-02-07T11:27:02.798Z,1034.09
2023-02-07T11:28:02.858Z,1034.08
2023-02-07T11:29:02.809Z,1034.04
2023-02-07T11:30:02.848Z,1034.03
2023-02-07T11:31:02.955Z,1034.00
2023-02-07T11:32:02.978Z,1033.93
2023-02-07T11:33:02.898Z,1033.93
2023-02-07T11:34:02.917Z,1033.90
2023-02-07T11:35:02.940Z,1033.94
2023-02-07T11:36:02.961Z,1033.86
2023-02-07T11:37:02.982Z,1033.94
2023-02-07T11:38:04.664Z,1033.91
2023-02-07T11:39:03.029Z,1033.86
2023-02-07T11:40:03.057Z,1033.85
2023-02-07T11:41:03.073Z,1033.80
2023-02-07T11:42:03.100Z,1033.80
2023-02-07T11:43:03.118Z,1033.78
2023-02-07T11:44:03.137Z,1033.74
2023-02-07T11:45:03.160Z,1033.72
2023-02-07T11:46:03.235Z,1033.73
2023-02-07T11:47:03.238Z,1033.72
2023-02-07T11:48:03.226Z,1033.69
2023-02-07T11:49:03.250Z,1033.73
2023-02-07T11:50:03.270Z,1033.71
2023-02-07T11:51:03.304Z,1033.71
2023-02-07T11:52:03.316Z,1033.72
2023-02-07T11:53:03.343Z,1033.66
2023-02-07T11:54:03.357Z,1033.75
2023-02-07T11:55:03.393Z,1033.69
2023-02-07T11:56:03.425Z,1033.76
2023-02-07T11:57:03.433Z,1033.72
2023-02-07T11:58:03.450Z,1033.66
2023-02-07T11:59:03.473Z,1033.65
2023-02-07T12:00:03.507Z,1033.65
2023-02-07T12:01:03.517Z,1033.58
2023-02-07T12:02:03.627Z,1033.60
2023-02-07T12:03:03.569Z,1033.57
2023-02-07T12:04:03.586Z,1033.62
2023-02-07T12:05:03.655Z,1033.63
2023-02-07T12:06:03.643Z,1033.58